This is the latest recevied weather packets stored in our database for station/object K7OLI-13. If no packets are shown the sender has not sent any weather packets the latest 10 day(s).
| Time | Temp. | Humidity | Pressure | Rain* | Wind** | Luminosity | Snow |
|---|---|---|---|---|---|---|---|
| 1777530038 | 11.67° C | 83% | 1016.1 hPa | 0 mm | - | - | - |
| 1777529426 | 12.22° C | 82% | 1016.1 hPa | 0 mm | - | - | - |
| 1777527023 | 12.78° C | 80% | 1016.1 hPa | 0 mm | - | - | - |
| 1777525226 | 13.33° C | 78% | 1016.1 hPa | 0 mm | - | - | - |
| 1777510830 | 20.56° C | 46% | 1016.1 hPa | 0 mm | - | - | - |
| 1777507223 | 20.56° C | 42% | 1017.1 hPa | 0 mm | - | - | - |
| 1777505427 | 20.56° C | 42% | 1017.1 hPa | 0 mm | - | - | - |
| 1777504836 | 20° C | 43% | 1018 hPa | 0 mm | - | - | - |
| 1777503043 | 20° C | 42% | 1018 hPa | 0 mm | - | - | - |
| 1777501819 | 20° C | 44% | 1018.1 hPa | 0 mm | - | - | - |
| 1777501227 | 20° C | 45% | 1018.1 hPa | 0 mm | - | - | - |
| 1777498843 | 20° C | 44% | 1019.1 hPa | 0 mm | - | - | - |
| 1777498231 | 19.44° C | 48% | 1019.1 hPa | 0 mm | - | - | - |
| 1777495824 | 18.33° C | 50% | 1019.1 hPa | 0 mm | - | - | - |
| 1777491625 | 17.22° C | 52% | 1020.1 hPa | 0 mm | - | - | - |
| 1777490423 | 17.22° C | 54% | 1020.1 hPa | 0 mm | - | - | - |
| 1777486831 | 16.11° C | 60% | 1021.1 hPa | 0 mm | - | - | - |
| 1777485037 | 13.89° C | 66% | 1021 hPa | 0 mm | - | - | - |
| 1777483223 | 14.44° C | 64% | 1021 hPa | 0 mm | - | - | - |
| 1777476025 | 10.56° C | 76% | 1022 hPa | 0 mm | - | - | - |
| 1777472436 | 7.22° C | 90% | 1022 hPa | 0 mm | - | - | - |
| 1777470031 | 3.33° C | 99% | 1021 hPa | 0 mm | - | - | - |
| 1777467054 | 3.33° C | 99% | 1021 hPa | 0 mm | - | - | - |
| 1777466423 | 3.33° C | 99% | 1021 hPa | 0 mm | - | - | - |
| 1777460429 | 3.89° C | 97% | 1021 hPa | 0 mm | - | - | - |
* Rain latest hour (hover to see other rain measurements)
** Current wind speed in m/s (hover to see current wind gust speed)